sensor_id;sensor_type;location;lat;lon;timestamp;pressure;altitude;pressure_sealevel;temperature;humidity
43161;BME280;40968;52.342;5.528;2022-08-30T00:01:05;101893.19;;;15.54;64.97
43161;BME280;40968;52.342;5.528;2022-08-30T00:03:33;102219.16;;;17.43;65.42
43161;BME280;40968;52.342;5.528;2022-08-30T00:06:01;102217.56;;;17.29;65.37
43161;BME280;40968;52.342;5.528;2022-08-30T00:08:28;102254.13;;;17.57;65.53
43161;BME280;40968;52.342;5.528;2022-08-30T00:10:54;102258.69;;;17.57;65.78
43161;BME280;40968;52.342;5.528;2022-08-30T00:13:21;102221.88;;;17.32;65.48
43161;BME280;40968;52.342;5.528;2022-08-30T00:15:48;102257.31;;;17.51;65.88
43161;BME280;40968;52.342;5.528;2022-08-30T00:18:17;102064.22;;;16.37;65.79
43161;BME280;40968;52.342;5.528;2022-08-30T00:20:45;102258.34;;;17.50;65.77
43161;BME280;40968;52.342;5.528;2022-08-30T00:23:12;102187.06;;;17.04;65.76
43161;BME280;40968;52.342;5.528;2022-08-30T00:25:39;102219.41;;;17.17;65.73
43161;BME280;40968;52.342;5.528;2022-08-30T00:28:06;102106.28;;;16.53;65.72
43161;BME280;40968;52.342;5.528;2022-08-30T00:30:34;102135.22;;;16.75;65.71
43161;BME280;40968;52.342;5.528;2022-08-30T00:33:00;102249.94;;;17.42;65.62
43161;BME280;40968;52.342;5.528;2022-08-30T00:35:29;102251.94;;;17.40;65.63
43161;BME280;40968;52.342;5.528;2022-08-30T00:37:56;102214.13;;;17.16;65.94
43161;BME280;40968;52.342;5.528;2022-08-30T00:40:27;102251.56;;;17.33;65.96
43161;BME280;40968;52.342;5.528;2022-08-30T00:42:55;102244.44;;;17.32;65.80
43161;BME280;40968;52.342;5.528;2022-08-30T00:45:26;102192.97;;;16.98;65.87
43161;BME280;40968;52.342;5.528;2022-08-30T00:47:53;102154.06;;;16.65;65.76
43161;BME280;40968;52.342;5.528;2022-08-30T00:50:23;102215.97;;;17.04;66.06
43161;BME280;40968;52.342;5.528;2022-08-30T00:52:52;102249.47;;;17.26;66.16
43161;BME280;40968;52.342;5.528;2022-08-30T00:55:21;102251.69;;;17.20;66.07
43161;BME280;40968;52.342;5.528;2022-08-30T00:57:51;102246.28;;;17.20;66.04
43161;BME280;40968;52.342;5.528;2022-08-30T01:00:18;102247.13;;;17.21;66.07
43161;BME280;40968;52.342;5.528;2022-08-30T01:02:45;102126.34;;;16.39;66.15
43161;BME280;40968;52.342;5.528;2022-08-30T01:05:14;102142.59;;;16.39;66.69
43161;BME280;40968;52.342;5.528;2022-08-30T01:07:41;102210.28;;;16.73;66.64
43161;BME280;40968;52.342;5.528;2022-08-30T01:10:14;102224.06;;;16.81;66.85
43161;BME280;40968;52.342;5.528;2022-08-30T01:12:42;102045.50;;;15.65;67.07
43161;BME280;40968;52.342;5.528;2022-08-30T01:15:11;102257.28;;;16.83;66.80
43161;BME280;40968;52.342;5.528;2022-08-30T01:17:39;102270.03;;;16.94;67.13
43161;BME280;40968;52.342;5.528;2022-08-30T01:20:09;102040.94;;;15.54;67.41
43161;BME280;40968;52.342;5.528;2022-08-30T01:22:41;102275.75;;;16.89;67.62
43161;BME280;40968;52.342;5.528;2022-08-30T01:25:12;102273.31;;;16.86;67.80
43161;BME280;40968;52.342;5.528;2022-08-30T01:27:43;102040.31;;;15.50;67.88
43161;BME280;40968;52.342;5.528;2022-08-30T01:30:11;102266.28;;;16.84;67.89
43161;BME280;40968;52.342;5.528;2022-08-30T01:32:40;102195.59;;;16.41;67.92
43161;BME280;40968;52.342;5.528;2022-08-30T01:35:08;102088.03;;;15.74;67.85
43161;BME280;40968;52.342;5.528;2022-08-30T01:37:35;102260.63;;;16.76;68.02
43161;BME280;40968;52.342;5.528;2022-08-30T01:40:03;102211.81;;;16.41;68.22
43161;BME280;40968;52.342;5.528;2022-08-30T01:42:31;102222.28;;;16.46;68.19
43161;BME280;40968;52.342;5.528;2022-08-30T01:44:58;102130.63;;;15.83;68.19
43161;BME280;40968;52.342;5.528;2022-08-30T01:47:25;102170.06;;;16.10;68.20
43161;BME280;40968;52.342;5.528;2022-08-30T01:49:51;102208.94;;;16.32;68.37
43161;BME280;40968;52.342;5.528;2022-08-30T01:52:19;102257.63;;;16.56;68.60
43161;BME280;40968;52.342;5.528;2022-08-30T01:54:46;102201.03;;;16.17;68.77
43161;BME280;40968;52.342;5.528;2022-08-30T01:57:14;102246.13;;;16.41;68.97
43161;BME280;40968;52.342;5.528;2022-08-30T01:59:43;102065.50;;;15.27;68.92
43161;BME280;40968;52.342;5.528;2022-08-30T02:02:12;102205.09;;;16.12;69.25
43161;BME280;40968;52.342;5.528;2022-08-30T02:04:39;102263.31;;;16.40;69.31
43161;BME280;40968;52.342;5.528;2022-08-30T02:07:06;102167.91;;;15.78;68.97
43161;BME280;40968;52.342;5.528;2022-08-30T02:09:33;102237.94;;;16.18;69.16
43161;BME280;40968;52.342;5.528;2022-08-30T02:12:00;102268.97;;;16.37;69.21
43161;BME280;40968;52.342;5.528;2022-08-30T02:14:26;102112.22;;;15.40;69.25
43161;BME280;40968;52.342;5.528;2022-08-30T02:16:54;102167.97;;;15.65;69.48
43161;BME280;40968;52.342;5.528;2022-08-30T02:19:21;102263.06;;;16.32;69.69
43161;BME280;40968;52.342;5.528;2022-08-30T02:21:47;102185.66;;;15.82;69.48
43161;BME280;40968;52.342;5.528;2022-08-30T02:24:14;102266.00;;;16.29;69.55
43161;BME280;40968;52.342;5.528;2022-08-30T02:26:40;102192.66;;;15.85;69.83
43161;BME280;40968;52.342;5.528;2022-08-30T02:29:07;102259.13;;;16.24;69.79
43161;BME280;40968;52.342;5.528;2022-08-30T02:31:34;102259.13;;;16.24;69.72
43161;BME280;40968;52.342;5.528;2022-08-30T02:34:02;102211.28;;;16.01;69.66
43161;BME280;40968;52.342;5.528;2022-08-30T02:36:29;102230.41;;;16.11;69.95
43161;BME280;40968;52.342;5.528;2022-08-30T02:38:56;102216.38;;;16.05;69.94
43161;BME280;40968;52.342;5.528;2022-08-30T02:41:23;101962.22;;;14.50;69.69
43161;BME280;40968;52.342;5.528;2022-08-30T02:43:49;102248.38;;;16.23;69.78
43161;BME280;40968;52.342;5.528;2022-08-30T02:46:17;102247.66;;;16.21;70.04
43161;BME280;40968;52.342;5.528;2022-08-30T02:48:43;102254.16;;;16.18;70.09
43161;BME280;40968;52.342;5.528;2022-08-30T02:51:12;102252.88;;;16.11;70.33
43161;BME280;40968;52.342;5.528;2022-08-30T02:53:40;102253.97;;;16.08;70.57
43161;BME280;40968;52.342;5.528;2022-08-30T02:56:08;102014.63;;;14.59;70.48
43161;BME280;40968;52.342;5.528;2022-08-30T02:58:34;102212.13;;;15.77;70.71
43161;BME280;40968;52.342;5.528;2022-08-30T03:01:02;102245.84;;;15.97;70.89
43161;BME280;40968;52.342;5.528;2022-08-30T03:03:29;102242.50;;;15.94;70.97
43161;BME280;40968;52.342;5.528;2022-08-30T03:05:55;102206.69;;;15.66;71.38
43161;BME280;40968;52.342;5.528;2022-08-30T03:08:23;102221.69;;;15.70;71.28
43161;BME280;40968;52.342;5.528;2022-08-30T03:10:50;102219.03;;;15.57;71.10
43161;BME280;40968;52.342;5.528;2022-08-30T03:13:17;102214.25;;;15.61;71.26
43161;BME280;40968;52.342;5.528;2022-08-30T03:15:43;102213.28;;;15.62;71.61
43161;BME280;40968;52.342;5.528;2022-08-30T03:18:10;102101.59;;;14.88;71.70
43161;BME280;40968;52.342;5.528;2022-08-30T03:20:36;102231.84;;;15.66;71.68
43161;BME280;40968;52.342;5.528;2022-08-30T03:23:03;102073.13;;;14.71;71.87
43161;BME280;40968;52.342;5.528;2022-08-30T03:25:32;102204.69;;;15.44;71.96
43161;BME280;40968;52.342;5.528;2022-08-30T03:27:59;102166.09;;;15.17;72.16
43161;BME280;40968;52.342;5.528;2022-08-30T03:30:25;102224.75;;;15.52;72.00
43161;BME280;40968;52.342;5.528;2022-08-30T03:32:52;102193.06;;;15.30;71.84
43161;BME280;40968;52.342;5.528;2022-08-30T03:35:19;102130.50;;;14.86;72.00
43161;BME280;40968;52.342;5.528;2022-08-30T03:37:45;102210.22;;;15.42;72.06
43161;BME280;40968;52.342;5.528;2022-08-30T03:40:19;102091.03;;;14.72;71.86
43161;BME280;40968;52.342;5.528;2022-08-30T03:42:47;102211.84;;;15.45;71.88
43161;BME280;40968;52.342;5.528;2022-08-30T03:45:16;102207.28;;;15.45;71.86
43161;BME280;40968;52.342;5.528;2022-08-30T03:47:44;102212.44;;;15.48;71.73
43161;BME280;40968;52.342;5.528;2022-08-30T03:50:11;102219.81;;;15.46;72.07
43161;BME280;40968;52.342;5.528;2022-08-30T03:52:38;102202.44;;;15.37;72.08
43161;BME280;40968;52.342;5.528;2022-08-30T03:55:05;102158.31;;;15.13;71.73
43161;BME280;40968;52.342;5.528;2022-08-30T03:57:32;102206.75;;;15.40;72.08
43161;BME280;40968;52.342;5.528;2022-08-30T04:00:00;102255.31;;;15.66;71.92
43161;BME280;40968;52.342;5.528;2022-08-30T04:02:27;102209.13;;;15.45;71.69
43161;BME280;40968;52.342;5.528;2022-08-30T04:04:53;102009.06;;;14.23;71.46
43161;BME280;40968;52.342;5.528;2022-08-30T04:07:20;102245.59;;;15.63;71.58
43161;BME280;40968;52.342;5.528;2022-08-30T04:09:46;102033.88;;;14.29;71.41
43161;BME280;40968;52.342;5.528;2022-08-30T04:12:13;102236.47;;;15.40;71.74
43161;BME280;40968;52.342;5.528;2022-08-30T04:14:40;102210.38;;;15.28;71.53
43161;BME280;40968;52.342;5.528;2022-08-30T04:17:07;102162.03;;;14.99;71.44
43161;BME280;40968;52.342;5.528;2022-08-30T04:19:34;102185.66;;;15.08;71.36
43161;BME280;40968;52.342;5.528;2022-08-30T04:22:01;102131.84;;;14.68;71.60
43161;BME280;40968;52.342;5.528;2022-08-30T04:24:27;102183.66;;;14.86;71.50
43161;BME280;40968;52.342;5.528;2022-08-30T04:26:54;102229.72;;;15.21;71.38
43161;BME280;40968;52.342;5.528;2022-08-30T04:29:20;102261.13;;;15.35;71.36
43161;BME280;40968;52.342;5.528;2022-08-30T04:31:47;102183.00;;;14.82;71.57
43161;BME280;40968;52.342;5.528;2022-08-30T04:34:15;102076.69;;;14.20;71.62
43161;BME280;40968;52.342;5.528;2022-08-30T04:36:41;102259.19;;;15.24;72.03
43161;BME280;40968;52.342;5.528;2022-08-30T04:39:08;102241.72;;;15.04;72.15
43161;BME280;40968;52.342;5.528;2022-08-30T04:41:35;102188.16;;;14.72;72.30
43161;BME280;40968;52.342;5.528;2022-08-30T04:44:05;102214.53;;;14.82;72.82
43161;BME280;40968;52.342;5.528;2022-08-30T04:46:32;102162.03;;;14.47;72.86
43161;BME280;40968;52.342;5.528;2022-08-30T04:48:59;102228.56;;;14.87;73.09
43161;BME280;40968;52.342;5.528;2022-08-30T04:51:27;102143.25;;;14.33;73.22
43161;BME280;40968;52.342;5.528;2022-08-30T04:53:54;102124.56;;;14.17;73.42
43161;BME280;40968;52.342;5.528;2022-08-30T04:56:21;102267.84;;;15.04;73.68
43161;BME280;40968;52.342;5.528;2022-08-30T04:58:50;102273.22;;;15.04;73.63
43161;BME280;40968;52.342;5.528;2022-08-30T05:01:18;102268.06;;;15.01;73.63
43161;BME280;40968;52.342;5.528;2022-08-30T05:03:45;102283.19;;;15.03;73.54
43161;BME280;40968;52.342;5.528;2022-08-30T05:06:13;102130.81;;;14.17;73.85
43161;BME280;40968;52.342;5.528;2022-08-30T05:08:42;102216.44;;;14.67;73.86
43161;BME280;40968;52.342;5.528;2022-08-30T05:11:09;102193.97;;;14.53;73.94
43161;BME280;40968;52.342;5.528;2022-08-30T05:13:36;102221.84;;;14.67;73.96
43161;BME280;40968;52.342;5.528;2022-08-30T05:16:04;102209.09;;;14.56;73.93
43161;BME280;40968;52.342;5.528;2022-08-30T05:18:31;102295.06;;;15.01;73.87
43161;BME280;40968;52.342;5.528;2022-08-30T05:21:03;102286.22;;;14.99;74.01
43161;BME280;40968;52.342;5.528;2022-08-30T05:23:30;102239.66;;;14.69;73.89
43161;BME280;40968;52.342;5.528;2022-08-30T05:25:58;101985.75;;;13.18;73.83
43161;BME280;40968;52.342;5.528;2022-08-30T05:28:24;102293.13;;;15.03;73.96
43161;BME280;40968;52.342;5.528;2022-08-30T05:30:51;102058.19;;;13.63;73.70
43161;BME280;40968;52.342;5.528;2022-08-30T05:33:17;102100.72;;;13.85;73.60
43161;BME280;40968;52.342;5.528;2022-08-30T05:35:44;102298.06;;;15.09;73.79
43161;BME280;40968;52.342;5.528;2022-08-30T05:38:10;102249.91;;;14.77;73.65
43161;BME280;40968;52.342;5.528;2022-08-30T05:40:39;102298.72;;;15.13;73.80
43161;BME280;40968;52.342;5.528;2022-08-30T05:43:07;102212.50;;;14.58;73.78
43161;BME280;40968;52.342;5.528;2022-08-30T05:45:35;102310.19;;;15.16;73.65
43161;BME280;40968;52.342;5.528;2022-08-30T05:48:02;102264.81;;;14.96;73.82
43161;BME280;40968;52.342;5.528;2022-08-30T05:50:29;102298.72;;;15.25;73.66
43161;BME280;40968;52.342;5.528;2022-08-30T05:52:56;102221.53;;;14.84;73.82
43161;BME280;40968;52.342;5.528;2022-08-30T05:55:22;102223.06;;;14.88;73.59
43161;BME280;40968;52.342;5.528;2022-08-30T05:57:49;102196.38;;;14.71;73.62
43161;BME280;40968;52.342;5.528;2022-08-30T06:00:17;102205.56;;;14.81;73.93
43161;BME280;40968;52.342;5.528;2022-08-30T06:02:44;102065.78;;;14.09;74.04
43161;BME280;40968;52.342;5.528;2022-08-30T06:05:11;101978.34;;;13.62;74.37
43161;BME280;40968;52.342;5.528;2022-08-30T06:07:38;102044.00;;;14.12;74.66
43161;BME280;40968;52.342;5.528;2022-08-30T06:10:05;102230.25;;;15.27;73.74
43161;BME280;40968;52.342;5.528;2022-08-30T06:12:31;102038.00;;;14.21;73.69
43161;BME280;40968;52.342;5.528;2022-08-30T06:14:58;102307.63;;;15.90;73.68
43161;BME280;40968;52.342;5.528;2022-08-30T06:17:26;102220.50;;;15.37;72.99
43161;BME280;40968;52.342;5.528;2022-08-30T06:19:53;102037.88;;;14.36;72.78
43161;BME280;40968;52.342;5.528;2022-08-30T06:22:19;102249.16;;;15.64;72.93
43161;BME280;40968;52.342;5.528;2022-08-30T06:24:46;102314.34;;;16.09;72.83
43161;BME280;40968;52.342;5.528;2022-08-30T06:27:12;102230.31;;;15.75;72.81
43161;BME280;40968;52.342;5.528;2022-08-30T06:29:39;102212.28;;;15.63;72.67
43161;BME280;40968;52.342;5.528;2022-08-30T06:32:06;102310.16;;;16.29;72.60
43161;BME280;40968;52.342;5.528;2022-08-30T06:34:34;102318.66;;;16.36;72.73
43161;BME280;40968;52.342;5.528;2022-08-30T06:37:00;102284.19;;;16.27;72.47
43161;BME280;40968;52.342;5.528;2022-08-30T06:39:27;102263.13;;;16.19;71.98
43161;BME280;40968;52.342;5.528;2022-08-30T06:41:53;102314.78;;;16.51;71.99
43161;BME280;40968;52.342;5.528;2022-08-30T06:44:20;102305.25;;;16.58;72.04
43161;BME280;40968;52.342;5.528;2022-08-30T06:46:46;102225.00;;;16.11;71.66
43161;BME280;40968;52.342;5.528;2022-08-30T06:49:13;102157.28;;;15.64;70.67
43161;BME280;40968;52.342;5.528;2022-08-30T06:51:41;102159.06;;;15.76;70.56
43161;BME280;40968;52.342;5.528;2022-08-30T06:54:09;102273.69;;;16.46;70.03
43161;BME280;40968;52.342;5.528;2022-08-30T06:56:35;102088.03;;;15.38;70.11
43161;BME280;40968;52.342;5.528;2022-08-30T06:59:02;102286.28;;;16.58;70.00
43161;BME280;40968;52.342;5.528;2022-08-30T07:01:29;102304.75;;;16.65;69.15
43161;BME280;40968;52.342;5.528;2022-08-30T07:03:57;102290.22;;;16.66;68.82
43161;BME280;40968;52.342;5.528;2022-08-30T07:06:26;102266.31;;;16.48;69.00
43161;BME280;40968;52.342;5.528;2022-08-30T07:08:54;102216.03;;;16.21;68.83
43161;BME280;40968;52.342;5.528;2022-08-30T07:11:25;102155.47;;;15.88;68.30
43161;BME280;40968;52.342;5.528;2022-08-30T07:13:53;102288.03;;;16.71;68.65
43161;BME280;40968;52.342;5.528;2022-08-30T07:16:19;102338.75;;;17.04;68.21
43161;BME280;40968;52.342;5.528;2022-08-30T07:18:46;102311.25;;;16.98;68.34
43161;BME280;40968;52.342;5.528;2022-08-30T07:21:25;102174.13;;;16.16;67.86
43161;BME280;40968;52.342;5.528;2022-08-30T07:23:55;102259.22;;;16.70;67.94
43161;BME280;40968;52.342;5.528;2022-08-30T07:26:24;102267.13;;;16.73;67.75
43161;BME280;40968;52.342;5.528;2022-08-30T07:28:52;102336.66;;;17.19;67.91
43161;BME280;40968;52.342;5.528;2022-08-30T07:31:19;102337.41;;;17.21;66.77
43161;BME280;40968;52.342;5.528;2022-08-30T07:33:46;102207.00;;;16.45;67.11
43161;BME280;40968;52.342;5.528;2022-08-30T07:36:14;102138.31;;;16.12;67.05
43161;BME280;40968;52.342;5.528;2022-08-30T07:38:43;102276.66;;;17.01;67.09
43161;BME280;40968;52.342;5.528;2022-08-30T07:41:14;102339.16;;;17.45;66.77
43161;BME280;40968;52.342;5.528;2022-08-30T07:43:41;102079.31;;;15.95;65.89
43161;BME280;40968;52.342;5.528;2022-08-30T07:46:08;102339.13;;;17.56;66.29
43161;BME280;40968;52.342;5.528;2022-08-30T07:48:35;102338.66;;;17.63;65.95
43161;BME280;40968;52.342;5.528;2022-08-30T07:51:02;102331.00;;;17.68;65.46
43161;BME280;40968;52.342;5.528;2022-08-30T07:53:29;102296.28;;;17.50;65.05
43161;BME280;40968;52.342;5.528;2022-08-30T07:55:56;102321.63;;;17.72;64.90
43161;BME280;40968;52.342;5.528;2022-08-30T07:58:24;102275.19;;;17.54;64.94
43161;BME280;40968;52.342;5.528;2022-08-30T08:00:51;102296.75;;;17.67;64.23
43161;BME280;40968;52.342;5.528;2022-08-30T08:03:18;102296.59;;;17.80;63.68
43161;BME280;40968;52.342;5.528;2022-08-30T08:05:44;102299.19;;;17.81;63.32
43161;BME280;40968;52.342;5.528;2022-08-30T08:08:13;102154.81;;;17.01;63.34
43161;BME280;40968;52.342;5.528;2022-08-30T08:10:40;102293.88;;;17.91;63.00
43161;BME280;40968;52.342;5.528;2022-08-30T08:13:07;102283.16;;;17.89;62.56
43161;BME280;40968;52.342;5.528;2022-08-30T08:15:35;102120.22;;;16.94;61.97
43161;BME280;40968;52.342;5.528;2022-08-30T08:18:02;102185.66;;;17.44;62.20
43161;BME280;40968;52.342;5.528;2022-08-30T08:20:29;102288.75;;;18.20;61.59
43161;BME280;40968;52.342;5.528;2022-08-30T08:22:56;102222.19;;;17.72;59.97
43161;BME280;40968;52.342;5.528;2022-08-30T08:25:22;102271.84;;;18.17;59.77
43161;BME280;40968;52.342;5.528;2022-08-30T08:27:50;102343.97;;;18.63;59.61
43161;BME280;40968;52.342;5.528;2022-08-30T08:30:18;102339.50;;;18.73;59.40
43161;BME280;40968;52.342;5.528;2022-08-30T08:32:47;102324.88;;;18.75;58.53
43161;BME280;40968;52.342;5.528;2022-08-30T08:35:15;102117.75;;;17.57;58.38
43161;BME280;40968;52.342;5.528;2022-08-30T08:37:42;102353.72;;;18.98;57.93
43161;BME280;40968;52.342;5.528;2022-08-30T08:40:12;102239.59;;;18.35;57.62
43161;BME280;40968;52.342;5.528;2022-08-30T08:42:43;102342.88;;;19.08;56.50
43161;BME280;40968;52.342;5.528;2022-08-30T08:45:18;102310.63;;;18.94;56.27
43161;BME280;40968;52.342;5.528;2022-08-30T08:47:54;102335.81;;;19.17;56.40
43161;BME280;40968;52.342;5.528;2022-08-30T08:50:22;102345.84;;;19.26;55.95
43161;BME280;40968;52.342;5.528;2022-08-30T08:52:53;102324.72;;;19.30;54.80
43161;BME280;40968;52.342;5.528;2022-08-30T08:55:41;102272.09;;;18.88;54.36
43161;BME280;40968;52.342;5.528;2022-08-30T08:58:17;102300.63;;;19.15;53.99
43161;BME280;40968;52.342;5.528;2022-08-30T09:00:46;102349.06;;;19.41;53.49
43161;BME280;40968;52.342;5.528;2022-08-30T09:03:14;102338.06;;;19.43;52.71
43161;BME280;40968;52.342;5.528;2022-08-30T09:05:43;102325.03;;;19.36;52.92
43161;BME280;40968;52.342;5.528;2022-08-30T09:08:13;102260.53;;;19.08;52.86
43161;BME280;40968;52.342;5.528;2022-08-30T09:10:45;102343.25;;;19.55;52.81
43161;BME280;40968;52.342;5.528;2022-08-30T09:13:14;102299.69;;;19.36;52.37
43161;BME280;40968;52.342;5.528;2022-08-30T09:15:40;102342.34;;;19.66;52.50
43161;BME280;40968;52.342;5.528;2022-08-30T09:18:07;102312.06;;;19.60;51.63
43161;BME280;40968;52.342;5.528;2022-08-30T09:20:37;102269.66;;;19.37;51.72
43161;BME280;40968;52.342;5.528;2022-08-30T09:23:23;102286.63;;;19.61;50.62
43161;BME280;40968;52.342;5.528;2022-08-30T09:25:57;102069.63;;;18.34;51.35
43161;BME280;40968;52.342;5.528;2022-08-30T09:28:25;102330.28;;;20.00;51.10
43161;BME280;40968;52.342;5.528;2022-08-30T09:31:04;102344.50;;;20.23;49.87
43161;BME280;40968;52.342;5.528;2022-08-30T09:33:31;102285.59;;;19.93;49.40
43161;BME280;40968;52.342;5.528;2022-08-30T09:36:11;102345.66;;;20.40;49.03
43161;BME280;40968;52.342;5.528;2022-08-30T09:38:39;102255.94;;;19.90;49.52
43161;BME280;40968;52.342;5.528;2022-08-30T09:41:28;102302.81;;;20.32;48.24
43161;BME280;40968;52.342;5.528;2022-08-30T09:44:10;102346.22;;;20.53;48.20
43161;BME280;40968;52.342;5.528;2022-08-30T09:46:48;102303.94;;;20.40;48.56
43161;BME280;40968;52.342;5.528;2022-08-30T09:49:29;102249.50;;;20.10;49.25
43161;BME280;40968;52.342;5.528;2022-08-30T09:52:15;102260.25;;;20.31;47.62
43161;BME280;40968;52.342;5.528;2022-08-30T09:54:48;102339.63;;;20.85;48.51
43161;BME280;40968;52.342;5.528;2022-08-30T09:57:23;102265.25;;;20.56;48.33
43161;BME280;40968;52.342;5.528;2022-08-30T09:59:58;102187.75;;;20.11;47.06
43161;BME280;40968;52.342;5.528;2022-08-30T10:02:47;102339.31;;;21.08;47.46
43161;BME280;40968;52.342;5.528;2022-08-30T10:05:22;102341.00;;;21.19;46.77
43161;BME280;40968;52.342;5.528;2022-08-30T10:08:00;102340.97;;;21.29;46.76
43161;BME280;40968;52.342;5.528;2022-08-30T10:10:33;102337.78;;;21.43;47.28
43161;BME280;40968;52.342;5.528;2022-08-30T10:13:15;102110.72;;;20.10;45.37
43161;BME280;40968;52.342;5.528;2022-08-30T10:15:48;102233.31;;;21.05;46.39
43161;BME280;40968;52.342;5.528;2022-08-30T10:18:20;102264.16;;;21.43;45.60
43161;BME280;40968;52.342;5.528;2022-08-30T10:20:55;102305.19;;;21.79;46.17
43161;BME280;40968;52.342;5.528;2022-08-30T10:23:28;102278.22;;;21.76;45.00
43161;BME280;40968;52.342;5.528;2022-08-30T10:26:04;102249.19;;;21.75;44.14
43161;BME280;40968;52.342;5.528;2022-08-30T10:28:37;102320.69;;;22.25;44.33
43161;BME280;40968;52.342;5.528;2022-08-30T10:31:11;102260.78;;;22.05;44.16
43161;BME280;40968;52.342;5.528;2022-08-30T10:33:41;102279.00;;;22.23;43.31
43161;BME280;40968;52.342;5.528;2022-08-30T10:36:11;102198.75;;;21.79;43.62
43161;BME280;40968;52.342;5.528;2022-08-30T10:38:43;102283.34;;;22.43;43.31
43161;BME280;40968;52.342;5.528;2022-08-30T10:41:21;102290.19;;;22.47;44.02
43161;BME280;40968;52.342;5.528;2022-08-30T10:43:56;102123.53;;;21.59;43.80
43161;BME280;40968;52.342;5.528;2022-08-30T10:46:29;102291.00;;;22.66;43.81
43161;BME280;40968;52.342;5.528;2022-08-30T10:49:01;102283.91;;;22.73;42.76
43161;BME280;40968;52.342;5.528;2022-08-30T10:51:32;102330.28;;;23.09;42.30
43161;BME280;40968;52.342;5.528;2022-08-30T10:54:08;102247.50;;;22.73;41.77
43161;BME280;40968;52.342;5.528;2022-08-30T10:56:36;102261.13;;;22.91;41.49
43161;BME280;40968;52.342;5.528;2022-08-30T10:59:05;102197.09;;;22.67;41.08
43161;BME280;40968;52.342;5.528;2022-08-30T11:01:43;102233.72;;;23.09;40.78
43161;BME280;40968;52.342;5.528;2022-08-30T11:04:33;102328.06;;;23.74;40.23
43161;BME280;40968;52.342;5.528;2022-08-30T11:07:11;102237.81;;;23.39;40.77
43161;BME280;40968;52.342;5.528;2022-08-30T11:09:59;102259.81;;;23.72;39.92
43161;BME280;40968;52.342;5.528;2022-08-30T11:12:35;102302.34;;;24.01;39.20
43161;BME280;40968;52.342;5.528;2022-08-30T11:15:15;102307.84;;;24.17;38.93
43161;BME280;40968;52.342;5.528;2022-08-30T11:17:45;102273.09;;;24.10;38.98
43161;BME280;40968;52.342;5.528;2022-08-30T11:20:27;102306.84;;;24.35;38.91
43161;BME280;40968;52.342;5.528;2022-08-30T11:26:04;102325.34;;;24.49;39.17
43161;BME280;40968;52.342;5.528;2022-08-30T11:29:03;102316.28;;;24.65;38.59
43161;BME280;40968;52.342;5.528;2022-08-30T11:31:34;102231.69;;;24.29;38.67
43161;BME280;40968;52.342;5.528;2022-08-30T11:34:01;102320.22;;;24.96;37.32
43161;BME280;40968;52.342;5.528;2022-08-30T11:36:59;102318.63;;;25.10;38.06
43161;BME280;40968;52.342;5.528;2022-08-30T11:39:53;102255.28;;;24.88;36.61
43161;BME280;40968;52.342;5.528;2022-08-30T11:42:39;102313.97;;;25.35;36.49
43161;BME280;40968;52.342;5.528;2022-08-30T11:45:45;102314.31;;;25.40;37.67
43161;BME280;40968;52.342;5.528;2022-08-30T11:48:39;102310.44;;;25.58;37.31
43161;BME280;40968;52.342;5.528;2022-08-30T11:54:02;102268.59;;;25.56;37.46
43161;BME280;40968;52.342;5.528;2022-08-30T11:56:35;102238.78;;;25.53;34.62
43161;BME280;40968;52.342;5.528;2022-08-30T11:59:20;102299.25;;;25.68;35.12
43161;BME280;40968;52.342;5.528;2022-08-30T12:01:51;102311.22;;;25.75;34.72
43161;BME280;40968;52.342;5.528;2022-08-30T12:04:27;102281.22;;;25.73;33.79
43161;BME280;40968;52.342;5.528;2022-08-30T12:07:00;102303.97;;;25.82;34.55
43161;BME280;40968;52.342;5.528;2022-08-30T12:10:00;102301.97;;;25.76;34.99
43161;BME280;40968;52.342;5.528;2022-08-30T12:12:50;102284.91;;;25.89;34.59
43161;BME280;40968;52.342;5.528;2022-08-30T12:18:41;102287.38;;;26.30;33.87
43161;BME280;40968;52.342;5.528;2022-08-30T12:21:26;102278.34;;;26.44;32.61
43161;BME280;40968;52.342;5.528;2022-08-30T12:23:57;102291.56;;;26.64;32.92
43161;BME280;40968;52.342;5.528;2022-08-30T12:26:32;102291.19;;;26.67;32.15
43161;BME280;40968;52.342;5.528;2022-08-30T12:29:22;102291.19;;;26.67;31.95
43161;BME280;40968;52.342;5.528;2022-08-30T12:31:52;102243.28;;;26.46;32.96
43161;BME280;40968;52.342;5.528;2022-08-30T12:34:26;102286.97;;;26.79;32.05
43161;BME280;40968;52.342;5.528;2022-08-30T12:36:58;102263.19;;;26.48;31.34
43161;BME280;40968;52.342;5.528;2022-08-30T12:39:32;102276.09;;;26.63;32.60
43161;BME280;40968;52.342;5.528;2022-08-30T12:42:10;102219.69;;;26.52;32.11
43161;BME280;40968;52.342;5.528;2022-08-30T12:44:38;102266.53;;;27.12;31.99
43161;BME280;40968;52.342;5.528;2022-08-30T12:47:05;102161.56;;;26.55;30.57
43161;BME280;40968;52.342;5.528;2022-08-30T12:49:35;102276.75;;;27.33;31.13
43161;BME280;40968;52.342;5.528;2022-08-30T12:52:21;102253.97;;;27.39;31.14
43161;BME280;40968;52.342;5.528;2022-08-30T12:54:48;102273.47;;;27.74;30.06
43161;BME280;40968;52.342;5.528;2022-08-30T12:57:34;102234.00;;;27.67;30.75
43161;BME280;40968;52.342;5.528;2022-08-30T13:00:03;102276.25;;;27.96;28.94
43161;BME280;40968;52.342;5.528;2022-08-30T13:02:42;102249.91;;;27.87;29.77
43161;BME280;40968;52.342;5.528;2022-08-30T13:05:30;102269.19;;;28.08;29.25
43161;BME280;40968;52.342;5.528;2022-08-30T13:08:09;102197.41;;;27.52;29.29
43161;BME280;40968;52.342;5.528;2022-08-30T13:10:51;102263.84;;;27.85;30.03
43161;BME280;40968;52.342;5.528;2022-08-30T13:13:31;102262.22;;;27.91;30.18
43161;BME280;40968;52.342;5.528;2022-08-30T13:16:07;102172.38;;;27.32;30.39